Hlavní strana
METAR-TAF:

METAR-TAF

Letiště :

Kristiansund, Norsko

zeměpisná šířka: 63-07N, zeměpisná délka: 007-50E, výška: 6 m

Aktuální stav počasí

Zpráva byla vytvořena před 41 minutami, v 02:50 UTC
Východojihovýchodní vítr 6 kt, proměnlivý mezi východním a jihojihovýchodním
Teplota -1°C
Vlhkost vzduchu 64%
Tlak 1019 hPa
Viditelnost 10 km a více

METAR: ENKB 050250Z AUTO 12006KT 080V150 9999 BKN074/// M01/M07 Q1019 RMK WIND 745FT 12014KT

Čas: 05:31 (03:31 UTC)

Předpověď počasí

Zpráva byla vytvořena před 8 hodinami a 34 minutami, v 18:57 UTC
Předpověď platná od 04 v 18 UTC do 04 v 21 UTC
vítr z různých směrů 6 kt
Viditelnost 10 km a více
Skoro jasno ve výšce 2000 ft
Polojasno ve výšce 10000 ft

TAF: ENKB 041857Z 0418/0421 VRB06KT 9999 FEW020 SCT100

Stav a předpovědi počasí z více než 4 000 letišť (zprávy METAR a TAF).

Červené a žluté tečky na mapě představují dostupné meteorologické stanice.

Když kurzor umístíte na tečku, zobrazí se název stanice.

Pak kliknutím zobrazíte stav a předpověď počasí.

Chcete-li změnit mapu, kliknutím na zelené tlačítko se znaménkem +mapu přiblížíte, kliknutím na zelené tlačítko se znaménkem – mapu oddálíte a kliknutím na zelené šipky přejdete na sousední mapy.


METAR-TAF: